createdAt,value
2018-04-18T00:02:11.654Z,92.60
2018-04-18T00:04:39.771Z,92.68
2018-04-18T00:07:07.960Z,92.95
2018-04-18T00:09:36.078Z,93.18
2018-04-18T00:12:04.199Z,93.27
2018-04-18T00:14:32.338Z,93.50
2018-04-18T00:17:00.467Z,93.54
2018-04-18T00:19:28.607Z,93.41
2018-04-18T00:21:56.731Z,93.34
2018-04-18T00:24:24.870Z,93.39
2018-04-18T00:26:52.996Z,93.38
2018-04-18T00:29:21.118Z,93.43
2018-04-18T00:31:49.278Z,93.67
2018-04-18T00:34:17.422Z,94.33
2018-04-18T00:36:45.557Z,94.77
2018-04-18T00:39:13.699Z,94.81
2018-04-18T00:41:41.837Z,94.67
2018-04-18T00:44:09.965Z,94.51
2018-04-18T00:46:38.102Z,94.41
2018-04-18T00:49:06.306Z,94.36
2018-04-18T00:51:34.431Z,94.42
2018-04-18T00:54:02.551Z,94.37
2018-04-18T00:56:30.683Z,94.35
2018-04-18T00:58:58.818Z,94.38
2018-04-18T01:01:26.954Z,94.18
2018-04-18T01:03:55.081Z,94.06
2018-04-18T01:06:23.230Z,93.92
2018-04-18T01:08:51.364Z,94.16
2018-04-18T01:11:19.491Z,94.66
2018-04-18T01:13:47.614Z,94.58
2018-04-18T01:16:15.754Z,94.36
2018-04-18T01:18:43.890Z,94.54
2018-04-18T01:21:12.013Z,94.55
2018-04-18T01:23:40.152Z,94.31
2018-04-18T01:26:08.285Z,94.13
2018-04-18T01:28:36.409Z,93.89
2018-04-18T01:31:04.569Z,93.86
2018-04-18T01:33:32.706Z,93.51
2018-04-18T01:36:00.830Z,93.74
2018-04-18T01:38:28.962Z,93.78
2018-04-18T01:40:57.096Z,93.80
2018-04-18T01:43:25.234Z,93.65
2018-04-18T01:45:53.379Z,93.66
2018-04-18T01:48:21.531Z,93.62
2018-04-18T01:50:49.717Z,94.01
2018-04-18T01:53:17.805Z,94.16
2018-04-18T01:55:45.936Z,94.25
2018-04-18T01:58:14.066Z,94.65
2018-04-18T02:00:42.200Z,94.96
2018-04-18T02:03:10.679Z,94.88
2018-04-18T02:05:38.962Z,95.01
2018-04-18T02:08:07.132Z,94.93
2018-04-18T02:10:35.274Z,94.88
2018-04-18T02:13:04.266Z,94.76
2018-04-18T02:15:32.407Z,94.87
2018-04-18T02:18:00.531Z,94.79
2018-04-18T02:20:28.658Z,94.64
2018-04-18T02:22:56.799Z,94.69
2018-04-18T02:25:24.958Z,94.65
2018-04-18T02:27:53.089Z,94.66
2018-04-18T02:30:21.286Z,94.84
2018-04-18T02:32:49.421Z,94.73
2018-04-18T02:35:17.544Z,94.52
2018-04-18T02:37:45.678Z,94.34
2018-04-18T02:40:13.813Z,94.25
2018-04-18T02:42:42.034Z,94.74
2018-04-18T02:45:10.669Z,94.77
2018-04-18T02:47:38.895Z,94.91
2018-04-18T02:50:07.038Z,95.36
2018-04-18T02:52:35.172Z,95.42
2018-04-18T02:55:03.301Z,95.76
2018-04-18T02:57:31.439Z,96.36
2018-04-18T02:59:59.573Z,96.37
2018-04-18T03:02:27.703Z,96.28
2018-04-18T03:04:55.829Z,96.15
2018-04-18T03:07:23.969Z,96.32
2018-04-18T03:09:52.117Z,96.49
2018-04-18T03:12:20.263Z,96.49
2018-04-18T03:14:48.398Z,96.53
2018-04-18T03:17:16.522Z,96.66
2018-04-18T03:19:44.650Z,96.45
2018-04-18T03:22:12.790Z,96.29
2018-04-18T03:24:40.939Z,96.21
2018-04-18T03:27:09.125Z,96.09
2018-04-18T03:29:37.276Z,96.04
2018-04-18T03:32:05.408Z,96.20
2018-04-18T03:34:33.523Z,96.07
2018-04-18T03:37:01.670Z,95.77
2018-04-18T03:39:29.805Z,95.79
2018-04-18T03:41:57.952Z,95.58
2018-04-18T03:44:26.107Z,95.56
2018-04-18T03:46:54.234Z,95.57
2018-04-18T03:49:22.364Z,95.52
2018-04-18T03:51:50.510Z,95.68
2018-04-18T03:54:18.630Z,96.01
2018-04-18T03:56:46.756Z,96.28
2018-04-18T03:59:14.916Z,96.57
2018-04-18T04:01:43.039Z,96.85
2018-04-18T04:04:11.177Z,96.78
2018-04-18T04:06:39.296Z,96.79
2018-04-18T04:09:07.522Z,96.83
2018-04-18T04:11:35.645Z,96.70
2018-04-18T04:14:03.786Z,96.58
2018-04-18T04:16:43.651Z,96.26
2018-04-18T04:19:23.486Z,96.21
2018-04-18T04:22:03.514Z,96.12
2018-04-18T04:24:39.189Z,95.87
2018-04-18T04:27:07.342Z,95.72
2018-04-18T04:29:35.736Z,95.61
2018-04-18T04:32:03.867Z,95.25
2018-04-18T04:34:32.000Z,95.18
2018-04-18T04:37:00.152Z,95.24
2018-04-18T04:39:28.278Z,95.37
2018-04-18T04:41:56.442Z,95.31
2018-04-18T04:44:24.580Z,95.50
2018-04-18T04:46:52.703Z,95.42
2018-04-18T04:49:20.829Z,95.35
2018-04-18T04:51:48.949Z,95.44
2018-04-18T04:54:17.090Z,95.26
2018-04-18T04:56:45.210Z,94.91
2018-04-18T04:59:13.341Z,94.85
2018-04-18T05:01:41.946Z,94.73
2018-04-18T05:04:10.076Z,94.51
2018-04-18T05:06:38.219Z,94.63
2018-04-18T05:09:06.419Z,94.54
2018-04-18T05:11:34.553Z,94.23
2018-04-18T05:14:02.710Z,93.89
2018-04-18T05:16:30.846Z,93.39
2018-04-18T05:18:58.994Z,92.91
2018-04-18T05:21:27.110Z,92.78
2018-04-18T05:23:55.251Z,92.78
2018-04-18T05:26:23.373Z,92.38
2018-04-18T05:28:51.505Z,92.76
2018-04-18T05:31:19.640Z,92.40
2018-04-18T05:33:47.769Z,92.35
2018-04-18T05:36:15.904Z,92.47
2018-04-18T05:38:44.064Z,91.96
2018-04-18T05:41:12.332Z,91.96
2018-04-18T05:43:40.462Z,91.61
2018-04-18T05:46:08.597Z,91.30
2018-04-18T05:48:36.801Z,91.42
2018-04-18T05:51:04.993Z,91.05
2018-04-18T05:53:33.111Z,89.85
2018-04-18T05:56:01.258Z,89.65
2018-04-18T05:58:29.398Z,88.56
2018-04-18T06:00:57.542Z,88.92
2018-04-18T06:03:25.681Z,89.13
2018-04-18T06:05:53.836Z,88.26
2018-04-18T06:08:21.986Z,87.59
2018-04-18T06:10:50.115Z,87.72
2018-04-18T06:13:18.249Z,88.33
2018-04-18T06:15:46.389Z,87.06
2018-04-18T06:18:14.518Z,87.45
2018-04-18T06:20:42.660Z,88.11
2018-04-18T06:23:10.808Z,86.92
2018-04-18T06:25:38.945Z,86.30
2018-04-18T06:28:07.083Z,86.69
2018-04-18T06:30:35.236Z,86.60
2018-04-18T06:33:03.356Z,86.07
2018-04-18T06:35:31.497Z,85.88
2018-04-18T06:38:04.674Z,86.00
2018-04-18T06:40:32.998Z,84.28
2018-04-18T06:43:01.136Z,85.22
2018-04-18T06:45:29.267Z,84.42
2018-04-18T06:47:57.405Z,85.01
2018-04-18T06:50:25.554Z,83.02
2018-04-18T06:52:53.709Z,83.53
2018-04-18T06:55:21.869Z,83.65
2018-04-18T06:57:50.001Z,83.45
2018-04-18T07:00:18.150Z,82.63
2018-04-18T07:02:46.272Z,82.06
2018-04-18T07:05:14.409Z,80.82
2018-04-18T07:07:42.555Z,79.41
2018-04-18T07:10:10.684Z,79.01
2018-04-18T07:12:38.808Z,78.43
2018-04-18T07:15:07.077Z,77.81
2018-04-18T07:17:35.212Z,76.41
2018-04-18T07:20:03.360Z,76.63
2018-04-18T07:22:31.495Z,76.41
2018-04-18T07:24:59.631Z,75.20
2018-04-18T07:27:27.755Z,74.74
2018-04-18T07:29:55.896Z,75.64
2018-04-18T07:32:24.045Z,74.84
2018-04-18T07:34:52.194Z,73.82
2018-04-18T07:37:20.474Z,74.20
2018-04-18T07:39:48.633Z,75.35
2018-04-18T07:42:16.763Z,74.10
2018-04-18T07:44:44.899Z,73.30
2018-04-18T07:47:13.044Z,74.12
2018-04-18T07:49:41.178Z,73.11
2018-04-18T07:52:09.313Z,74.19
2018-04-18T07:54:37.458Z,72.69
2018-04-18T07:57:05.674Z,73.18
2018-04-18T07:59:33.812Z,69.92
2018-04-18T08:02:01.960Z,70.34
2018-04-18T08:04:30.101Z,69.24
2018-04-18T08:06:58.232Z,67.69
2018-04-18T08:09:26.423Z,68.58
2018-04-18T08:11:54.565Z,68.30
2018-04-18T08:14:22.726Z,67.08
2018-04-18T08:16:50.897Z,66.74
2018-04-18T08:19:19.028Z,66.89
2018-04-18T08:21:47.228Z,66.85
2018-04-18T08:24:15.327Z,66.34
2018-04-18T08:26:43.456Z,66.00
2018-04-18T08:29:11.609Z,64.23
2018-04-18T08:31:39.757Z,63.82
2018-04-18T08:34:07.910Z,61.85
2018-04-18T08:36:36.108Z,60.59
2018-04-18T08:39:04.225Z,59.71
2018-04-18T08:41:32.398Z,58.84
2018-04-18T08:44:00.552Z,57.59
2018-04-18T08:46:28.739Z,56.35
2018-04-18T08:48:56.870Z,53.85
2018-04-18T08:51:25.006Z,55.54
2018-04-18T08:53:53.151Z,54.76
2018-04-18T08:56:21.311Z,54.26
2018-04-18T08:58:49.442Z,55.07
2018-04-18T09:01:18.670Z,56.27
2018-04-18T09:03:46.824Z,56.16
2018-04-18T09:06:14.966Z,55.17
2018-04-18T09:08:43.101Z,53.31
2018-04-18T09:11:11.237Z,53.93
2018-04-18T09:13:39.373Z,53.21
2018-04-18T09:16:07.515Z,53.17
2018-04-18T09:18:35.637Z,50.52
2018-04-18T09:21:03.794Z,49.27
2018-04-18T09:26:55.246Z,49.74
2018-04-18T09:29:23.390Z,50.11
2018-04-18T09:31:51.518Z,50.72
2018-04-18T09:34:19.650Z,50.33
2018-04-18T09:36:47.803Z,50.78
2018-04-18T09:39:15.951Z,50.79
2018-04-18T09:41:44.088Z,47.91
2018-04-18T09:44:12.205Z,47.74
2018-04-18T09:46:40.367Z,50.68
2018-04-18T09:49:08.500Z,49.90
2018-04-18T09:51:36.635Z,48.78
2018-04-18T09:54:04.783Z,48.04
2018-04-18T09:56:32.911Z,47.31
2018-04-18T09:59:01.111Z,47.56
2018-04-18T10:01:34.948Z,46.52
2018-04-18T10:04:08.647Z,46.80
2018-04-18T10:06:36.871Z,46.46
2018-04-18T10:09:06.426Z,47.01
2018-04-18T10:11:34.570Z,46.88
2018-04-18T10:14:03.102Z,48.00
2018-04-18T10:16:31.263Z,48.83
2018-04-18T10:18:59.382Z,46.27
2018-04-18T10:21:27.585Z,48.52
2018-04-18T10:23:55.761Z,46.37
2018-04-18T10:26:23.913Z,45.88
2018-04-18T10:28:52.053Z,46.03
2018-04-18T10:31:20.185Z,48.56
2018-04-18T10:33:48.327Z,49.58
2018-04-18T10:36:16.468Z,48.37
2018-04-18T10:38:44.605Z,49.91
2018-04-18T10:41:12.742Z,43.93
2018-04-18T10:43:40.989Z,46.01
2018-04-18T10:46:10.680Z,46.10
2018-04-18T10:48:38.807Z,45.53
2018-04-18T10:51:07.033Z,46.76
2018-04-18T10:53:35.169Z,47.21
2018-04-18T10:56:03.328Z,46.57
2018-04-18T10:58:31.492Z,46.69
2018-04-18T11:00:59.619Z,44.78
2018-04-18T11:03:27.756Z,43.33
2018-04-18T11:05:55.943Z,42.99
2018-04-18T11:08:24.079Z,42.44
2018-04-18T11:10:52.195Z,43.80
2018-04-18T11:13:20.375Z,44.24
2018-04-18T11:15:48.477Z,43.98
2018-04-18T11:18:16.621Z,42.31
2018-04-18T11:20:44.766Z,42.85
2018-04-18T11:23:12.894Z,44.50
2018-04-18T11:25:41.029Z,43.64
2018-04-18T11:28:09.206Z,43.45
2018-04-18T11:30:37.363Z,43.48
2018-04-18T11:33:05.598Z,43.43
2018-04-18T11:35:33.746Z,42.49
2018-04-18T11:38:01.885Z,41.03
2018-04-18T11:40:30.031Z,42.35
2018-04-18T11:42:58.241Z,41.53
2018-04-18T11:45:26.373Z,41.01
2018-04-18T11:47:54.539Z,41.44
2018-04-18T11:50:22.675Z,42.86
2018-04-18T11:52:50.808Z,44.30
2018-04-18T11:55:18.946Z,43.21
2018-04-18T11:57:47.292Z,41.59
2018-04-18T12:00:15.444Z,41.29
2018-04-18T12:02:43.618Z,42.30
2018-04-18T12:05:11.779Z,41.54
2018-04-18T12:07:39.923Z,42.21
2018-04-18T12:10:08.079Z,40.26
2018-04-18T12:12:36.231Z,41.53
2018-04-18T12:15:04.365Z,42.89
2018-04-18T12:17:32.496Z,41.01
2018-04-18T12:20:00.643Z,40.79
2018-04-18T12:22:28.779Z,41.95
2018-04-18T12:24:56.920Z,41.01
2018-04-18T12:27:25.074Z,41.42
2018-04-18T12:29:53.234Z,41.46
2018-04-18T12:32:21.366Z,39.35
2018-04-18T12:34:49.514Z,41.01
2018-04-18T12:37:17.648Z,41.62
2018-04-18T12:39:45.793Z,39.02
2018-04-18T12:42:14.113Z,39.91
2018-04-18T12:44:42.246Z,41.08
2018-04-18T12:47:10.434Z,41.62
2018-04-18T12:49:38.649Z,39.43
2018-04-18T12:52:06.777Z,40.20
2018-04-18T12:54:34.947Z,42.57
2018-04-18T12:57:03.135Z,42.30
2018-04-18T12:59:31.339Z,40.53
2018-04-18T13:01:59.471Z,39.02
2018-04-18T13:04:27.633Z,39.24
2018-04-18T13:06:55.761Z,37.80
2018-04-18T13:09:23.902Z,37.75
2018-04-18T13:11:52.092Z,38.62
2018-04-18T13:14:20.216Z,38.69
2018-04-18T13:16:48.371Z,39.27
2018-04-18T13:19:16.517Z,38.45
2018-04-18T13:21:44.678Z,38.46
2018-04-18T13:24:12.809Z,38.54
2018-04-18T13:26:40.993Z,37.07
2018-04-18T13:29:09.958Z,38.82
2018-04-18T13:31:38.121Z,37.61
2018-04-18T13:34:06.277Z,36.65
2018-04-18T13:36:34.411Z,37.91
2018-04-18T13:39:02.552Z,37.23
2018-04-18T13:41:30.714Z,37.75
2018-04-18T13:43:58.843Z,37.96
2018-04-18T13:46:26.971Z,36.48
2018-04-18T13:48:55.138Z,37.55
2018-04-18T13:51:23.290Z,37.96
2018-04-18T13:53:51.421Z,36.97
2018-04-18T13:56:19.581Z,38.05
2018-04-18T13:58:47.709Z,37.40
2018-04-18T14:01:15.851Z,36.30
2018-04-18T14:03:44.003Z,37.51
2018-04-18T14:06:12.151Z,37.84
2018-04-18T14:08:40.289Z,37.42
2018-04-18T14:11:09.611Z,36.55
2018-04-18T14:13:37.751Z,36.13
2018-04-18T14:16:05.907Z,36.74
2018-04-18T14:18:34.048Z,37.76
2018-04-18T14:21:02.166Z,36.47
2018-04-18T14:23:30.305Z,36.59
2018-04-18T14:25:58.442Z,36.84
2018-04-18T14:28:26.592Z,35.77
2018-04-18T14:30:54.740Z,38.20
2018-04-18T14:33:22.867Z,36.98
2018-04-18T14:35:50.994Z,37.40
2018-04-18T14:38:19.137Z,38.39
2018-04-18T14:40:47.310Z,37.82
2018-04-18T14:43:15.447Z,38.87
2018-04-18T14:45:43.608Z,36.90
2018-04-18T14:48:11.743Z,38.86
2018-04-18T14:50:39.859Z,37.85
2018-04-18T14:53:08.013Z,37.23
2018-04-18T14:55:36.175Z,37.51
2018-04-18T14:58:04.323Z,37.73
2018-04-18T15:00:32.454Z,36.86
2018-04-18T15:03:00.594Z,37.77
2018-04-18T15:05:28.770Z,38.27
2018-04-18T15:07:56.901Z,37.74
2018-04-18T15:10:25.048Z,37.73
2018-04-18T15:12:53.175Z,39.79
2018-04-18T15:15:21.320Z,39.29
2018-04-18T15:17:49.450Z,38.22
2018-04-18T15:20:17.581Z,38.59
2018-04-18T15:22:45.731Z,38.01
2018-04-18T15:25:13.867Z,37.69
2018-04-18T15:27:41.986Z,37.47
2018-04-18T15:30:10.116Z,37.56
2018-04-18T15:32:38.272Z,38.21
2018-04-18T15:35:06.467Z,39.11
2018-04-18T15:37:34.589Z,37.94
2018-04-18T15:40:02.746Z,36.59
2018-04-18T15:42:30.866Z,37.87
2018-04-18T15:44:59.020Z,37.90
2018-04-18T15:47:27.183Z,38.43
2018-04-18T15:49:55.402Z,38.07
2018-04-18T15:52:23.526Z,38.06
2018-04-18T15:54:51.657Z,36.84
2018-04-18T15:57:19.798Z,37.48
2018-04-18T15:59:47.930Z,38.13
2018-04-18T16:02:16.109Z,37.73
2018-04-18T16:04:44.235Z,37.83
2018-04-18T16:07:12.384Z,36.77
2018-04-18T16:09:40.510Z,36.55
2018-04-18T16:12:09.011Z,36.85
2018-04-18T16:14:37.144Z,37.66
2018-04-18T16:17:05.315Z,37.02
2018-04-18T16:19:33.435Z,37.50
2018-04-18T16:22:01.555Z,37.64
2018-04-18T16:24:29.690Z,37.89
2018-04-18T16:26:57.810Z,38.00
2018-04-18T16:29:37.679Z,38.28
2018-04-18T16:32:05.828Z,37.88
2018-04-18T16:34:33.985Z,37.88
2018-04-18T16:37:02.118Z,38.12
2018-04-18T16:39:30.259Z,38.88
2018-04-18T16:41:58.389Z,38.95
2018-04-18T16:44:26.523Z,38.76
2018-04-18T16:46:54.655Z,38.69
2018-04-18T16:49:22.791Z,38.53
2018-04-18T16:51:50.914Z,38.77
2018-04-18T16:54:19.123Z,38.74
2018-04-18T16:56:47.248Z,39.06
2018-04-18T16:59:15.380Z,39.33
2018-04-18T17:01:43.530Z,39.71
2018-04-18T17:04:11.655Z,39.75
2018-04-18T17:06:39.816Z,40.35
2018-04-18T17:09:07.963Z,40.83
2018-04-18T17:11:36.105Z,40.96
2018-04-18T17:14:04.234Z,40.72
2018-04-18T17:16:32.350Z,41.68
2018-04-18T17:19:00.596Z,41.74
2018-04-18T17:21:28.766Z,41.95
2018-04-18T17:23:56.889Z,42.03
2018-04-18T17:26:25.011Z,43.22
2018-04-18T17:28:53.157Z,43.98
2018-04-18T17:31:21.313Z,44.39
2018-04-18T17:33:49.451Z,45.41
2018-04-18T17:36:17.571Z,45.79
2018-04-18T17:38:45.784Z,46.30
2018-04-18T17:41:13.937Z,46.87
2018-04-18T17:43:42.070Z,47.56
2018-04-18T17:46:10.217Z,47.84
2018-04-18T17:48:38.341Z,48.44
2018-04-18T17:51:06.562Z,49.56
2018-04-18T17:53:34.694Z,51.26
2018-04-18T17:56:02.836Z,52.30
2018-04-18T17:58:30.985Z,52.25
2018-04-18T18:03:52.379Z,54.68
2018-04-18T18:06:20.601Z,54.93
2018-04-18T18:08:48.681Z,56.32
2018-04-18T18:11:16.848Z,56.06
2018-04-18T18:13:44.973Z,56.53
2018-04-18T18:16:13.110Z,57.03
2018-04-18T18:18:41.312Z,57.17
2018-04-18T18:21:09.851Z,57.33
2018-04-18T18:23:37.973Z,58.65
2018-04-18T18:26:06.117Z,59.11
2018-04-18T18:28:34.247Z,59.45
2018-04-18T18:31:02.399Z,59.19
2018-04-18T18:33:30.693Z,59.89
2018-04-18T18:35:58.818Z,60.40
2018-04-18T18:38:27.008Z,60.37
2018-04-18T18:40:55.138Z,59.53
2018-04-18T18:43:23.327Z,59.30
2018-04-18T18:45:51.415Z,59.86
2018-04-18T18:48:19.565Z,59.98
2018-04-18T18:50:47.701Z,60.75
2018-04-18T18:53:15.851Z,60.89
2018-04-18T18:55:43.990Z,60.92
2018-04-18T18:58:12.130Z,60.80
2018-04-18T19:00:40.265Z,60.75
2018-04-18T19:03:08.424Z,60.86
2018-04-18T19:05:36.595Z,61.22
2018-04-18T19:08:04.723Z,61.85
2018-04-18T19:10:32.853Z,62.57
2018-04-18T19:13:00.990Z,63.07
2018-04-18T19:15:29.158Z,63.68
2018-04-18T19:17:57.306Z,63.77
2018-04-18T19:20:25.438Z,63.83
2018-04-18T19:22:53.577Z,64.06
2018-04-18T19:25:21.732Z,64.33
2018-04-18T19:27:49.873Z,64.57
2018-04-18T19:30:18.005Z,64.85
2018-04-18T19:32:46.169Z,65.15
2018-04-18T19:35:14.310Z,65.65
2018-04-18T19:37:42.452Z,66.02
2018-04-18T19:40:10.754Z,66.31
2018-04-18T19:42:38.882Z,66.26
2018-04-18T19:45:07.093Z,66.85
2018-04-18T19:47:35.266Z,67.25
2018-04-18T19:50:03.361Z,67.39
2018-04-18T19:52:31.548Z,67.65
2018-04-18T19:54:59.671Z,68.01
2018-04-18T19:57:27.805Z,68.71
2018-04-18T19:59:55.937Z,68.62
2018-04-18T20:02:24.066Z,69.04
2018-04-18T20:04:52.204Z,69.08
2018-04-18T20:07:20.348Z,69.92
2018-04-18T20:09:48.488Z,70.26
2018-04-18T20:12:16.614Z,70.67
2018-04-18T20:14:44.753Z,70.84
2018-04-18T20:17:12.887Z,70.99
2018-04-18T20:19:41.461Z,71.01
2018-04-18T20:22:10.772Z,71.34
2018-04-18T20:24:38.907Z,71.53
2018-04-18T20:27:07.118Z,71.71
2018-04-18T20:29:35.258Z,71.82
2018-04-18T20:32:03.397Z,71.65
2018-04-18T20:34:31.518Z,71.82
2018-04-18T20:36:59.671Z,71.81
2018-04-18T20:39:27.819Z,71.84
2018-04-18T20:41:55.968Z,71.78
2018-04-18T20:44:24.111Z,72.00
2018-04-18T20:46:52.346Z,72.15
2018-04-18T20:49:20.486Z,72.30
2018-04-18T20:51:48.620Z,72.33
2018-04-18T20:54:16.752Z,72.36
2018-04-18T20:56:44.888Z,72.75
2018-04-18T20:59:13.043Z,72.91
2018-04-18T21:01:41.223Z,73.19
2018-04-18T21:04:09.357Z,73.34
2018-04-18T21:06:37.494Z,74.37
2018-04-18T21:09:05.716Z,75.75
2018-04-18T21:11:33.887Z,76.67
2018-04-18T21:14:02.046Z,77.14
2018-04-18T21:16:30.314Z,77.06
2018-04-18T21:18:58.461Z,77.02
2018-04-18T21:21:26.621Z,76.96
2018-04-18T21:23:54.750Z,77.15
2018-04-18T21:26:22.880Z,77.45
2018-04-18T21:28:51.021Z,78.17
2018-04-18T21:31:19.161Z,78.05
2018-04-18T21:33:47.295Z,77.87
2018-04-18T21:36:15.426Z,78.03
2018-04-18T21:38:43.568Z,78.15
2018-04-18T21:41:11.709Z,78.81
2018-04-18T21:43:39.886Z,78.66
2018-04-18T21:46:08.041Z,78.98
2018-04-18T21:48:36.162Z,79.06
2018-04-18T21:51:04.295Z,79.08
2018-04-18T21:53:32.454Z,78.92
2018-04-18T21:56:00.591Z,79.20
2018-04-18T21:58:28.727Z,79.13
2018-04-18T22:00:56.860Z,79.07
2018-04-18T22:03:24.992Z,79.49
2018-04-18T22:05:53.143Z,79.80
2018-04-18T22:08:21.288Z,79.86
2018-04-18T22:10:49.414Z,79.63
2018-04-18T22:13:17.540Z,80.68
2018-04-18T22:15:45.686Z,81.24
2018-04-18T22:18:13.843Z,80.83
2018-04-18T22:24:00.137Z,81.20
2018-04-18T22:26:28.262Z,81.34
2018-04-18T22:28:57.702Z,81.33
2018-04-18T22:31:25.848Z,81.23
2018-04-18T22:33:53.995Z,81.33
2018-04-18T22:36:22.142Z,81.50
2018-04-18T22:38:50.282Z,81.71
2018-04-18T22:41:18.426Z,82.75
2018-04-18T22:43:46.588Z,83.17
2018-04-18T22:46:14.743Z,82.80
2018-04-18T22:48:42.867Z,82.78
2018-04-18T22:51:11.006Z,82.79
2018-04-18T22:53:39.294Z,83.15
2018-04-18T22:56:07.440Z,83.20
2018-04-18T22:58:35.569Z,83.48
2018-04-18T23:01:03.715Z,83.69
2018-04-18T23:03:31.847Z,83.84
2018-04-18T23:06:03.642Z,83.68
2018-04-18T23:08:31.782Z,83.41
2018-04-18T23:10:59.924Z,83.49
2018-04-18T23:13:28.054Z,83.93
2018-04-18T23:15:56.219Z,83.62
2018-04-18T23:18:24.337Z,83.68
2018-04-18T23:20:52.462Z,83.79
2018-04-18T23:23:20.608Z,83.63
2018-04-18T23:25:48.743Z,84.19
2018-04-18T23:28:16.886Z,84.72
2018-04-18T23:30:45.028Z,84.97
2018-04-18T23:33:13.167Z,84.90
2018-04-18T23:35:41.304Z,84.77
2018-04-18T23:38:09.454Z,84.96
2018-04-18T23:40:37.570Z,85.08
2018-04-18T23:43:05.805Z,84.92
2018-04-18T23:45:33.930Z,84.67
2018-04-18T23:48:02.068Z,84.76
2018-04-18T23:50:30.198Z,85.22
2018-04-18T23:52:58.330Z,85.31
2018-04-18T23:55:26.466Z,85.22
2018-04-18T23:57:54.606Z,85.49
